sensor_id;sensor_type;location;lat;lon;timestamp;P1;durP1;ratioP1;P2;durP2;ratioP2
77432;SDS011;66752;48.576;8.876;2023-07-29T00:01:00;11.40;;;2.22;;
77432;SDS011;66752;48.576;8.876;2023-07-29T00:03:26;5.10;;;1.67;;
77432;SDS011;66752;48.576;8.876;2023-07-29T00:05:55;5.80;;;2.00;;
77432;SDS011;66752;48.576;8.876;2023-07-29T00:08:20;4.15;;;1.73;;
77432;SDS011;66752;48.576;8.876;2023-07-29T00:10:46;4.47;;;1.95;;
77432;SDS011;66752;48.576;8.876;2023-07-29T00:13:12;7.85;;;2.13;;
77432;SDS011;66752;48.576;8.876;2023-07-29T00:15:38;6.13;;;2.03;;
77432;SDS011;66752;48.576;8.876;2023-07-29T00:18:04;8.38;;;1.88;;
77432;SDS011;66752;48.576;8.876;2023-07-29T00:20:30;9.13;;;1.90;;
77432;SDS011;66752;48.576;8.876;2023-07-29T00:22:56;5.03;;;2.03;;
77432;SDS011;66752;48.576;8.876;2023-07-29T00:25:23;5.63;;;2.17;;
77432;SDS011;66752;48.576;8.876;2023-07-29T00:27:49;4.65;;;1.80;;
77432;SDS011;66752;48.576;8.876;2023-07-29T00:30:15;8.98;;;2.55;;
77432;SDS011;66752;48.576;8.876;2023-07-29T00:32:41;5.85;;;2.20;;
77432;SDS011;66752;48.576;8.876;2023-07-29T00:35:07;7.78;;;2.80;;
77432;SDS011;66752;48.576;8.876;2023-07-29T00:37:33;5.78;;;1.92;;
77432;SDS011;66752;48.576;8.876;2023-07-29T00:39:59;6.43;;;2.25;;
77432;SDS011;66752;48.576;8.876;2023-07-29T00:42:25;7.60;;;2.08;;
77432;SDS011;66752;48.576;8.876;2023-07-29T00:44:51;5.53;;;1.95;;
77432;SDS011;66752;48.576;8.876;2023-07-29T00:47:17;8.07;;;1.90;;
77432;SDS011;66752;48.576;8.876;2023-07-29T00:49:43;8.75;;;2.63;;
77432;SDS011;66752;48.576;8.876;2023-07-29T00:52:10;7.88;;;3.05;;
77432;SDS011;66752;48.576;8.876;2023-07-29T00:54:37;5.20;;;2.45;;
77432;SDS011;66752;48.576;8.876;2023-07-29T00:59:30;5.50;;;2.78;;
77432;SDS011;66752;48.576;8.876;2023-07-29T01:01:56;7.78;;;2.72;;
77432;SDS011;66752;48.576;8.876;2023-07-29T01:06:50;6.35;;;2.20;;
77432;SDS011;66752;48.576;8.876;2023-07-29T01:09:29;7.22;;;2.50;;
77432;SDS011;66752;48.576;8.876;2023-07-29T01:17:15;10.05;;;2.40;;
77432;SDS011;66752;48.576;8.876;2023-07-29T01:22:19;8.13;;;2.00;;
77432;SDS011;66752;48.576;8.876;2023-07-29T01:24:45;5.88;;;1.95;;
77432;SDS011;66752;48.576;8.876;2023-07-29T01:27:11;7.03;;;2.20;;
77432;SDS011;66752;48.576;8.876;2023-07-29T01:29:37;8.93;;;2.67;;
77432;SDS011;66752;48.576;8.876;2023-07-29T01:32:11;5.60;;;1.90;;
77432;SDS011;66752;48.576;8.876;2023-07-29T01:34:45;5.47;;;2.78;;
77432;SDS011;66752;48.576;8.876;2023-07-29T01:37:15;5.50;;;2.85;;
77432;SDS011;66752;48.576;8.876;2023-07-29T01:39:45;5.82;;;2.47;;
77432;SDS011;66752;48.576;8.876;2023-07-29T01:42:12;7.20;;;2.85;;
77432;SDS011;66752;48.576;8.876;2023-07-29T01:44:38;5.88;;;2.30;;
77432;SDS011;66752;48.576;8.876;2023-07-29T01:47:04;6.30;;;2.60;;
77432;SDS011;66752;48.576;8.876;2023-07-29T01:49:30;6.00;;;2.22;;
77432;SDS011;66752;48.576;8.876;2023-07-29T01:51:56;4.82;;;2.28;;
77432;SDS011;66752;48.576;8.876;2023-07-29T01:54:22;8.27;;;1.90;;
77432;SDS011;66752;48.576;8.876;2023-07-29T01:56:48;5.25;;;2.13;;
77432;SDS011;66752;48.576;8.876;2023-07-29T01:59:16;5.97;;;2.30;;
77432;SDS011;66752;48.576;8.876;2023-07-29T02:01:42;6.25;;;2.50;;
77432;SDS011;66752;48.576;8.876;2023-07-29T02:04:08;7.68;;;1.92;;
77432;SDS011;66752;48.576;8.876;2023-07-29T02:06:34;7.00;;;1.95;;
77432;SDS011;66752;48.576;8.876;2023-07-29T02:09:00;6.30;;;2.15;;
77432;SDS011;66752;48.576;8.876;2023-07-29T02:11:25;7.65;;;2.35;;
77432;SDS011;66752;48.576;8.876;2023-07-29T02:13:53;6.28;;;2.65;;
77432;SDS011;66752;48.576;8.876;2023-07-29T02:16:20;8.65;;;2.67;;
77432;SDS011;66752;48.576;8.876;2023-07-29T02:18:45;9.57;;;2.60;;
77432;SDS011;66752;48.576;8.876;2023-07-29T02:21:11;12.07;;;3.10;;
77432;SDS011;66752;48.576;8.876;2023-07-29T02:23:37;7.63;;;2.50;;
77432;SDS011;66752;48.576;8.876;2023-07-29T02:26:03;7.30;;;2.70;;
77432;SDS011;66752;48.576;8.876;2023-07-29T02:28:29;5.50;;;2.33;;
77432;SDS011;66752;48.576;8.876;2023-07-29T02:33:51;4.40;;;2.10;;
77432;SDS011;66752;48.576;8.876;2023-07-29T02:36:17;4.70;;;2.30;;
77432;SDS011;66752;48.576;8.876;2023-07-29T02:38:43;4.53;;;2.20;;
77432;SDS011;66752;48.576;8.876;2023-07-29T02:41:09;3.85;;;1.92;;
77432;SDS011;66752;48.576;8.876;2023-07-29T02:43:37;4.50;;;2.17;;
77432;SDS011;66752;48.576;8.876;2023-07-29T02:46:03;5.15;;;2.90;;
77432;SDS011;66752;48.576;8.876;2023-07-29T02:48:30;5.47;;;2.50;;
77432;SDS011;66752;48.576;8.876;2023-07-29T02:50:56;7.30;;;3.15;;
77432;SDS011;66752;48.576;8.876;2023-07-29T02:53:22;5.07;;;2.83;;
77432;SDS011;66752;48.576;8.876;2023-07-29T02:55:48;4.82;;;2.38;;
77432;SDS011;66752;48.576;8.876;2023-07-29T02:58:14;4.28;;;2.25;;
77432;SDS011;66752;48.576;8.876;2023-07-29T03:00:40;4.82;;;2.60;;
77432;SDS011;66752;48.576;8.876;2023-07-29T03:03:09;4.75;;;2.10;;
77432;SDS011;66752;48.576;8.876;2023-07-29T03:05:35;4.18;;;1.80;;
77432;SDS011;66752;48.576;8.876;2023-07-29T03:08:03;4.53;;;1.67;;
77432;SDS011;66752;48.576;8.876;2023-07-29T03:10:29;5.43;;;2.05;;
77432;SDS011;66752;48.576;8.876;2023-07-29T03:12:55;4.65;;;2.15;;
77432;SDS011;66752;48.576;8.876;2023-07-29T03:15:24;6.88;;;3.30;;
77432;SDS011;66752;48.576;8.876;2023-07-29T03:17:50;7.45;;;2.67;;
77432;SDS011;66752;48.576;8.876;2023-07-29T03:20:17;8.07;;;3.05;;
77432;SDS011;66752;48.576;8.876;2023-07-29T03:22:43;5.15;;;2.65;;
77432;SDS011;66752;48.576;8.876;2023-07-29T03:25:09;5.93;;;2.03;;
77432;SDS011;66752;48.576;8.876;2023-07-29T03:27:35;7.95;;;2.65;;
77432;SDS011;66752;48.576;8.876;2023-07-29T03:30:05;9.80;;;2.40;;
77432;SDS011;66752;48.576;8.876;2023-07-29T03:32:31;7.05;;;2.38;;
77432;SDS011;66752;48.576;8.876;2023-07-29T03:34:57;6.15;;;2.35;;
77432;SDS011;66752;48.576;8.876;2023-07-29T03:39:49;6.85;;;2.50;;
77432;SDS011;66752;48.576;8.876;2023-07-29T03:42:17;6.15;;;2.65;;
77432;SDS011;66752;48.576;8.876;2023-07-29T03:44:43;7.97;;;2.72;;
77432;SDS011;66752;48.576;8.876;2023-07-29T03:47:09;6.05;;;2.00;;
77432;SDS011;66752;48.576;8.876;2023-07-29T03:49:34;7.40;;;3.08;;
77432;SDS011;66752;48.576;8.876;2023-07-29T03:52:00;5.43;;;2.42;;
77432;SDS011;66752;48.576;8.876;2023-07-29T03:54:26;6.30;;;2.20;;
77432;SDS011;66752;48.576;8.876;2023-07-29T03:56:52;5.47;;;2.35;;
77432;SDS011;66752;48.576;8.876;2023-07-29T03:59:18;5.50;;;2.30;;
77432;SDS011;66752;48.576;8.876;2023-07-29T04:01:44;6.55;;;3.15;;
77432;SDS011;66752;48.576;8.876;2023-07-29T04:04:10;6.57;;;2.72;;
77432;SDS011;66752;48.576;8.876;2023-07-29T04:06:36;9.60;;;2.75;;
77432;SDS011;66752;48.576;8.876;2023-07-29T04:09:02;6.00;;;2.60;;
77432;SDS011;66752;48.576;8.876;2023-07-29T04:11:28;8.43;;;3.30;;
77432;SDS011;66752;48.576;8.876;2023-07-29T04:13:54;6.00;;;2.70;;
77432;SDS011;66752;48.576;8.876;2023-07-29T04:16:20;8.43;;;3.05;;
77432;SDS011;66752;48.576;8.876;2023-07-29T04:18:46;6.30;;;2.80;;
77432;SDS011;66752;48.576;8.876;2023-07-29T04:21:12;5.32;;;2.30;;
77432;SDS011;66752;48.576;8.876;2023-07-29T04:23:38;5.78;;;2.22;;
77432;SDS011;66752;48.576;8.876;2023-07-29T04:26:05;4.93;;;2.60;;
77432;SDS011;66752;48.576;8.876;2023-07-29T04:28:31;5.65;;;2.55;;
77432;SDS011;66752;48.576;8.876;2023-07-29T04:30:57;9.60;;;2.95;;
77432;SDS011;66752;48.576;8.876;2023-07-29T04:33:23;11.38;;;3.28;;
77432;SDS011;66752;48.576;8.876;2023-07-29T04:35:49;8.48;;;2.75;;
77432;SDS011;66752;48.576;8.876;2023-07-29T04:38:15;6.82;;;2.88;;
77432;SDS011;66752;48.576;8.876;2023-07-29T04:40:40;7.80;;;2.35;;
77432;SDS011;66752;48.576;8.876;2023-07-29T04:43:06;10.25;;;3.13;;
77432;SDS011;66752;48.576;8.876;2023-07-29T04:45:32;7.97;;;3.00;;
77432;SDS011;66752;48.576;8.876;2023-07-29T04:47:58;7.60;;;2.90;;
77432;SDS011;66752;48.576;8.876;2023-07-29T04:50:24;13.55;;;3.90;;
77432;SDS011;66752;48.576;8.876;2023-07-29T04:52:50;8.88;;;3.17;;
77432;SDS011;66752;48.576;8.876;2023-07-29T04:55:18;9.00;;;4.43;;
77432;SDS011;66752;48.576;8.876;2023-07-29T04:57:44;6.35;;;3.05;;
77432;SDS011;66752;48.576;8.876;2023-07-29T05:00:10;7.78;;;3.53;;
77432;SDS011;66752;48.576;8.876;2023-07-29T05:02:36;9.38;;;3.65;;
77432;SDS011;66752;48.576;8.876;2023-07-29T05:05:02;7.90;;;3.53;;
77432;SDS011;66752;48.576;8.876;2023-07-29T05:09:54;5.95;;;2.30;;
77432;SDS011;66752;48.576;8.876;2023-07-29T05:12:20;10.85;;;3.97;;
77432;SDS011;66752;48.576;8.876;2023-07-29T05:14:46;20.45;;;10.13;;
77432;SDS011;66752;48.576;8.876;2023-07-29T05:17:13;23.88;;;11.73;;
77432;SDS011;66752;48.576;8.876;2023-07-29T05:19:39;12.45;;;3.83;;
77432;SDS011;66752;48.576;8.876;2023-07-29T05:22:05;5.55;;;3.05;;
77432;SDS011;66752;48.576;8.876;2023-07-29T05:24:31;6.60;;;2.53;;
77432;SDS011;66752;48.576;8.876;2023-07-29T05:26:57;9.65;;;3.15;;
77432;SDS011;66752;48.576;8.876;2023-07-29T05:29:23;8.02;;;3.40;;
77432;SDS011;66752;48.576;8.876;2023-07-29T05:31:48;6.00;;;2.70;;
77432;SDS011;66752;48.576;8.876;2023-07-29T05:34:14;6.43;;;3.33;;
77432;SDS011;66752;48.576;8.876;2023-07-29T05:36:40;7.55;;;3.05;;
77432;SDS011;66752;48.576;8.876;2023-07-29T05:39:06;8.25;;;3.40;;
77432;SDS011;66752;48.576;8.876;2023-07-29T05:41:32;7.20;;;2.83;;
77432;SDS011;66752;48.576;8.876;2023-07-29T05:43:58;7.32;;;2.85;;
77432;SDS011;66752;48.576;8.876;2023-07-29T05:46:24;7.93;;;3.28;;
77432;SDS011;66752;48.576;8.876;2023-07-29T05:48:51;8.73;;;3.35;;
77432;SDS011;66752;48.576;8.876;2023-07-29T05:51:17;6.78;;;2.88;;
77432;SDS011;66752;48.576;8.876;2023-07-29T05:53:43;8.07;;;3.70;;
77432;SDS011;66752;48.576;8.876;2023-07-29T05:56:09;10.73;;;4.15;;
77432;SDS011;66752;48.576;8.876;2023-07-29T05:58:35;7.95;;;3.28;;
77432;SDS011;66752;48.576;8.876;2023-07-29T06:01:01;7.93;;;3.70;;
77432;SDS011;66752;48.576;8.876;2023-07-29T06:03:27;8.02;;;3.30;;
77432;SDS011;66752;48.576;8.876;2023-07-29T06:05:53;7.75;;;2.63;;
77432;SDS011;66752;48.576;8.876;2023-07-29T06:08:19;8.48;;;3.08;;
77432;SDS011;66752;48.576;8.876;2023-07-29T06:10:45;8.55;;;3.20;;
77432;SDS011;66752;48.576;8.876;2023-07-29T06:13:11;7.50;;;3.33;;
77432;SDS011;66752;48.576;8.876;2023-07-29T06:15:37;7.88;;;3.42;;
77432;SDS011;66752;48.576;8.876;2023-07-29T06:18:03;8.00;;;3.05;;
77432;SDS011;66752;48.576;8.876;2023-07-29T06:20:29;8.48;;;3.22;;
77432;SDS011;66752;48.576;8.876;2023-07-29T06:22:55;7.82;;;3.33;;
77432;SDS011;66752;48.576;8.876;2023-07-29T06:25:21;9.10;;;3.45;;
77432;SDS011;66752;48.576;8.876;2023-07-29T06:27:47;8.25;;;3.10;;
77432;SDS011;66752;48.576;8.876;2023-07-29T06:30:13;9.35;;;3.03;;
77432;SDS011;66752;48.576;8.876;2023-07-29T06:32:39;5.75;;;2.67;;
77432;SDS011;66752;48.576;8.876;2023-07-29T06:35:05;5.03;;;2.53;;
77432;SDS011;66752;48.576;8.876;2023-07-29T06:37:31;7.57;;;2.63;;
77432;SDS011;66752;48.576;8.876;2023-07-29T06:39:58;6.72;;;2.92;;
77432;SDS011;66752;48.576;8.876;2023-07-29T06:42:24;8.30;;;2.42;;
77432;SDS011;66752;48.576;8.876;2023-07-29T06:44:50;6.18;;;2.03;;
77432;SDS011;66752;48.576;8.876;2023-07-29T06:47:16;6.93;;;5.07;;
77432;SDS011;66752;48.576;8.876;2023-07-29T06:49:42;6.40;;;2.22;;
77432;SDS011;66752;48.576;8.876;2023-07-29T06:52:08;7.55;;;2.35;;
77432;SDS011;66752;48.576;8.876;2023-07-29T06:54:34;6.00;;;3.08;;
77432;SDS011;66752;48.576;8.876;2023-07-29T06:56:59;6.90;;;3.03;;
77432;SDS011;66752;48.576;8.876;2023-07-29T06:59:25;6.57;;;3.22;;
77432;SDS011;66752;48.576;8.876;2023-07-29T07:01:52;5.65;;;2.75;;
77432;SDS011;66752;48.576;8.876;2023-07-29T07:04:18;7.13;;;2.80;;
77432;SDS011;66752;48.576;8.876;2023-07-29T07:06:43;6.65;;;2.55;;
77432;SDS011;66752;48.576;8.876;2023-07-29T07:09:09;6.28;;;2.35;;
77432;SDS011;66752;48.576;8.876;2023-07-29T07:11:35;6.63;;;2.70;;
77432;SDS011;66752;48.576;8.876;2023-07-29T07:14:01;7.25;;;2.40;;
77432;SDS011;66752;48.576;8.876;2023-07-29T07:16:27;5.53;;;2.00;;
77432;SDS011;66752;48.576;8.876;2023-07-29T07:18:55;4.03;;;2.00;;
77432;SDS011;66752;48.576;8.876;2023-07-29T07:21:21;6.32;;;2.30;;
77432;SDS011;66752;48.576;8.876;2023-07-29T07:23:48;5.85;;;2.03;;
77432;SDS011;66752;48.576;8.876;2023-07-29T07:26:14;5.22;;;1.80;;
77432;SDS011;66752;48.576;8.876;2023-07-29T07:28:40;4.75;;;1.70;;
77432;SDS011;66752;48.576;8.876;2023-07-29T07:31:06;4.75;;;2.13;;
77432;SDS011;66752;48.576;8.876;2023-07-29T07:33:32;7.90;;;2.50;;
77432;SDS011;66752;48.576;8.876;2023-07-29T07:35:58;5.07;;;2.13;;
77432;SDS011;66752;48.576;8.876;2023-07-29T07:38:24;4.68;;;2.10;;
77432;SDS011;66752;48.576;8.876;2023-07-29T07:40:54;6.55;;;3.03;;
77432;SDS011;66752;48.576;8.876;2023-07-29T07:43:20;5.07;;;2.47;;
77432;SDS011;66752;48.576;8.876;2023-07-29T07:45:46;5.75;;;2.60;;
77432;SDS011;66752;48.576;8.876;2023-07-29T07:48:13;5.47;;;3.03;;
77432;SDS011;66752;48.576;8.876;2023-07-29T07:50:41;6.07;;;3.00;;
77432;SDS011;66752;48.576;8.876;2023-07-29T07:53:07;8.52;;;3.30;;
77432;SDS011;66752;48.576;8.876;2023-07-29T07:55:33;4.70;;;2.35;;
77432;SDS011;66752;48.576;8.876;2023-07-29T07:57:59;6.97;;;2.97;;
77432;SDS011;66752;48.576;8.876;2023-07-29T08:00:25;4.65;;;2.05;;
77432;SDS011;66752;48.576;8.876;2023-07-29T08:02:51;5.47;;;2.05;;
77432;SDS011;66752;48.576;8.876;2023-07-29T08:05:17;4.43;;;2.22;;
77432;SDS011;66752;48.576;8.876;2023-07-29T08:07:43;5.45;;;2.13;;
77432;SDS011;66752;48.576;8.876;2023-07-29T08:10:09;6.05;;;2.10;;
77432;SDS011;66752;48.576;8.876;2023-07-29T08:12:35;5.60;;;2.38;;
77432;SDS011;66752;48.576;8.876;2023-07-29T08:15:01;5.78;;;1.73;;
77432;SDS011;66752;48.576;8.876;2023-07-29T08:17:28;4.30;;;2.15;;
77432;SDS011;66752;48.576;8.876;2023-07-29T08:19:54;4.65;;;1.77;;
77432;SDS011;66752;48.576;8.876;2023-07-29T08:22:19;4.82;;;2.40;;
77432;SDS011;66752;48.576;8.876;2023-07-29T08:24:45;5.07;;;2.22;;
77432;SDS011;66752;48.576;8.876;2023-07-29T08:27:11;4.10;;;1.80;;
77432;SDS011;66752;48.576;8.876;2023-07-29T08:29:38;4.35;;;2.00;;
77432;SDS011;66752;48.576;8.876;2023-07-29T08:32:04;4.93;;;2.03;;
77432;SDS011;66752;48.576;8.876;2023-07-29T08:34:30;5.50;;;1.45;;
77432;SDS011;66752;48.576;8.876;2023-07-29T08:36:56;3.70;;;1.70;;
77432;SDS011;66752;48.576;8.876;2023-07-29T08:39:22;4.00;;;1.63;;
77432;SDS011;66752;48.576;8.876;2023-07-29T08:41:57;3.95;;;1.52;;
77432;SDS011;66752;48.576;8.876;2023-07-29T08:44:24;4.70;;;1.58;;
77432;SDS011;66752;48.576;8.876;2023-07-29T08:46:51;4.20;;;1.77;;
77432;SDS011;66752;48.576;8.876;2023-07-29T08:49:18;3.80;;;1.52;;
77432;SDS011;66752;48.576;8.876;2023-07-29T08:51:48;3.90;;;1.48;;
77432;SDS011;66752;48.576;8.876;2023-07-29T08:54:14;4.22;;;1.80;;
77432;SDS011;66752;48.576;8.876;2023-07-29T08:59:06;4.28;;;2.05;;
77432;SDS011;66752;48.576;8.876;2023-07-29T09:01:33;6.22;;;2.17;;
77432;SDS011;66752;48.576;8.876;2023-07-29T09:03:59;5.70;;;2.08;;
77432;SDS011;66752;48.576;8.876;2023-07-29T09:08:52;3.88;;;1.40;;
77432;SDS011;66752;48.576;8.876;2023-07-29T09:11:19;5.72;;;1.90;;
77432;SDS011;66752;48.576;8.876;2023-07-29T09:13:46;4.38;;;1.70;;
77432;SDS011;66752;48.576;8.876;2023-07-29T09:16:12;3.88;;;1.50;;
77432;SDS011;66752;48.576;8.876;2023-07-29T09:18:38;5.70;;;1.63;;
77432;SDS011;66752;48.576;8.876;2023-07-29T09:21:04;4.72;;;2.22;;
77432;SDS011;66752;48.576;8.876;2023-07-29T09:23:42;4.82;;;1.92;;
77432;SDS011;66752;48.576;8.876;2023-07-29T09:26:08;4.45;;;1.80;;
77432;SDS011;66752;48.576;8.876;2023-07-29T09:28:35;4.60;;;2.00;;
77432;SDS011;66752;48.576;8.876;2023-07-29T09:31:02;4.93;;;1.95;;
77432;SDS011;66752;48.576;8.876;2023-07-29T09:33:28;4.35;;;1.70;;
77432;SDS011;66752;48.576;8.876;2023-07-29T09:35:56;4.90;;;2.03;;
77432;SDS011;66752;48.576;8.876;2023-07-29T09:38:28;4.65;;;2.25;;
77432;SDS011;66752;48.576;8.876;2023-07-29T09:40:55;5.68;;;1.95;;
77432;SDS011;66752;48.576;8.876;2023-07-29T09:43:29;4.50;;;1.98;;
77432;SDS011;66752;48.576;8.876;2023-07-29T09:45:55;4.68;;;2.10;;
77432;SDS011;66752;48.576;8.876;2023-07-29T09:48:25;4.40;;;1.70;;
77432;SDS011;66752;48.576;8.876;2023-07-29T09:50:51;4.68;;;2.05;;
77432;SDS011;66752;48.576;8.876;2023-07-29T09:53:17;4.93;;;2.17;;
77432;SDS011;66752;48.576;8.876;2023-07-29T09:55:46;4.93;;;2.38;;
77432;SDS011;66752;48.576;8.876;2023-07-29T09:58:13;6.40;;;2.17;;
77432;SDS011;66752;48.576;8.876;2023-07-29T10:00:39;3.78;;;1.55;;
77432;SDS011;66752;48.576;8.876;2023-07-29T10:03:06;4.10;;;1.67;;
77432;SDS011;66752;48.576;8.876;2023-07-29T10:05:32;3.60;;;1.38;;
77432;SDS011;66752;48.576;8.876;2023-07-29T10:08:01;4.65;;;2.03;;
77432;SDS011;66752;48.576;8.876;2023-07-29T10:10:28;5.40;;;1.90;;
77432;SDS011;66752;48.576;8.876;2023-07-29T10:12:54;3.35;;;1.45;;
77432;SDS011;66752;48.576;8.876;2023-07-29T10:15:22;4.05;;;1.70;;
77432;SDS011;66752;48.576;8.876;2023-07-29T10:17:48;4.55;;;1.92;;
77432;SDS011;66752;48.576;8.876;2023-07-29T10:20:15;4.63;;;1.80;;
77432;SDS011;66752;48.576;8.876;2023-07-29T10:25:08;4.07;;;1.90;;
77432;SDS011;66752;48.576;8.876;2023-07-29T10:27:37;4.85;;;1.92;;
77432;SDS011;66752;48.576;8.876;2023-07-29T10:30:05;4.88;;;2.40;;
77432;SDS011;66752;48.576;8.876;2023-07-29T10:32:32;4.43;;;1.70;;
77432;SDS011;66752;48.576;8.876;2023-07-29T10:34:58;6.03;;;2.00;;
77432;SDS011;66752;48.576;8.876;2023-07-29T10:37:24;4.00;;;1.90;;
77432;SDS011;66752;48.576;8.876;2023-07-29T10:39:56;3.88;;;1.77;;
77432;SDS011;66752;48.576;8.876;2023-07-29T10:42:22;4.20;;;1.70;;
77432;SDS011;66752;48.576;8.876;2023-07-29T10:47:21;4.57;;;2.00;;
77432;SDS011;66752;48.576;8.876;2023-07-29T10:49:48;4.40;;;2.10;;
77432;SDS011;66752;48.576;8.876;2023-07-29T10:52:15;4.93;;;1.90;;
77432;SDS011;66752;48.576;8.876;2023-07-29T10:54:45;4.43;;;1.75;;
77432;SDS011;66752;48.576;8.876;2023-07-29T10:57:15;5.82;;;2.22;;
77432;SDS011;66752;48.576;8.876;2023-07-29T10:59:41;4.50;;;2.35;;
77432;SDS011;66752;48.576;8.876;2023-07-29T11:02:19;4.72;;;1.80;;
77432;SDS011;66752;48.576;8.876;2023-07-29T11:04:46;4.20;;;1.90;;
77432;SDS011;66752;48.576;8.876;2023-07-29T11:15:37;5.85;;;2.08;;
77432;SDS011;66752;48.576;8.876;2023-07-29T11:17:56;4.20;;;1.70;;
77432;SDS011;66752;48.576;8.876;2023-07-29T11:20:27;4.53;;;1.83;;
77432;SDS011;66752;48.576;8.876;2023-07-29T11:22:53;4.32;;;1.52;;
77432;SDS011;66752;48.576;8.876;2023-07-29T11:25:21;5.28;;;2.28;;
77432;SDS011;66752;48.576;8.876;2023-07-29T11:27:47;5.05;;;1.95;;
77432;SDS011;66752;48.576;8.876;2023-07-29T11:30:14;6.03;;;2.10;;
77432;SDS011;66752;48.576;8.876;2023-07-29T11:32:41;4.68;;;1.85;;
77432;SDS011;66752;48.576;8.876;2023-07-29T11:35:08;4.93;;;1.95;;
77432;SDS011;66752;48.576;8.876;2023-07-29T11:37:35;4.45;;;2.15;;
77432;SDS011;66752;48.576;8.876;2023-07-29T11:42:27;4.75;;;1.90;;
77432;SDS011;66752;48.576;8.876;2023-07-29T11:47:19;5.15;;;1.92;;
77432;SDS011;66752;48.576;8.876;2023-07-29T11:49:45;4.43;;;1.80;;
77432;SDS011;66752;48.576;8.876;2023-07-29T11:52:11;3.90;;;1.63;;
77432;SDS011;66752;48.576;8.876;2023-07-29T11:54:38;4.07;;;1.88;;
77432;SDS011;66752;48.576;8.876;2023-07-29T11:57:08;5.57;;;2.22;;
77432;SDS011;66752;48.576;8.876;2023-07-29T11:59:34;4.82;;;1.90;;
77432;SDS011;66752;48.576;8.876;2023-07-29T12:02:01;5.45;;;1.90;;
77432;SDS011;66752;48.576;8.876;2023-07-29T12:04:28;4.35;;;1.83;;
77432;SDS011;66752;48.576;8.876;2023-07-29T12:06:54;4.60;;;1.77;;
77432;SDS011;66752;48.576;8.876;2023-07-29T12:09:21;6.78;;;2.03;;
77432;SDS011;66752;48.576;8.876;2023-07-29T12:14:13;4.53;;;1.90;;
77432;SDS011;66752;48.576;8.876;2023-07-29T12:16:47;3.80;;;1.55;;
77432;SDS011;66752;48.576;8.876;2023-07-29T12:19:13;5.00;;;1.88;;
77432;SDS011;66752;48.576;8.876;2023-07-29T12:21:41;3.92;;;1.65;;
77432;SDS011;66752;48.576;8.876;2023-07-29T12:24:07;4.00;;;1.70;;
77432;SDS011;66752;48.576;8.876;2023-07-29T12:29:10;4.10;;;1.80;;
77432;SDS011;66752;48.576;8.876;2023-07-29T12:31:37;5.22;;;1.80;;
77432;SDS011;66752;48.576;8.876;2023-07-29T12:34:03;4.13;;;1.92;;
77432;SDS011;66752;48.576;8.876;2023-07-29T12:38:58;4.50;;;1.60;;
77432;SDS011;66752;48.576;8.876;2023-07-29T12:41:24;7.35;;;2.00;;
77432;SDS011;66752;48.576;8.876;2023-07-29T12:43:50;4.18;;;1.88;;
77432;SDS011;66752;48.576;8.876;2023-07-29T12:48:42;4.80;;;1.65;;
77432;SDS011;66752;48.576;8.876;2023-07-29T12:51:08;3.80;;;1.40;;
77432;SDS011;66752;48.576;8.876;2023-07-29T12:53:34;5.63;;;1.92;;
77432;SDS011;66752;48.576;8.876;2023-07-29T12:56:00;5.03;;;2.10;;
77432;SDS011;66752;48.576;8.876;2023-07-29T12:58:26;5.55;;;2.00;;
77432;SDS011;66752;48.576;8.876;2023-07-29T13:00:52;4.00;;;1.80;;
77432;SDS011;66752;48.576;8.876;2023-07-29T13:03:19;4.68;;;1.80;;
77432;SDS011;66752;48.576;8.876;2023-07-29T13:05:45;11.88;;;3.47;;
77432;SDS011;66752;48.576;8.876;2023-07-29T13:10:37;5.32;;;1.98;;
77432;SDS011;66752;48.576;8.876;2023-07-29T13:13:03;4.63;;;1.70;;
77432;SDS011;66752;48.576;8.876;2023-07-29T13:15:29;4.47;;;1.60;;
77432;SDS011;66752;48.576;8.876;2023-07-29T13:17:55;4.70;;;1.70;;
77432;SDS011;66752;48.576;8.876;2023-07-29T13:20:20;3.80;;;1.38;;
77432;SDS011;66752;48.576;8.876;2023-07-29T13:22:46;4.35;;;1.58;;
77432;SDS011;66752;48.576;8.876;2023-07-29T13:27:38;5.15;;;2.55;;
77432;SDS011;66752;48.576;8.876;2023-07-29T13:30:04;3.67;;;1.60;;
77432;SDS011;66752;48.576;8.876;2023-07-29T13:32:30;4.35;;;1.48;;
77432;SDS011;66752;48.576;8.876;2023-07-29T13:34:56;4.50;;;1.80;;
77432;SDS011;66752;48.576;8.876;2023-07-29T13:37:22;4.38;;;1.83;;
77432;SDS011;66752;48.576;8.876;2023-07-29T13:39:48;4.55;;;1.77;;
77432;SDS011;66752;48.576;8.876;2023-07-29T13:42:14;4.45;;;1.77;;
77432;SDS011;66752;48.576;8.876;2023-07-29T13:44:40;4.35;;;1.90;;
77432;SDS011;66752;48.576;8.876;2023-07-29T13:47:06;4.22;;;1.85;;
77432;SDS011;66752;48.576;8.876;2023-07-29T13:49:32;4.13;;;1.90;;
77432;SDS011;66752;48.576;8.876;2023-07-29T13:51:58;4.25;;;1.60;;
77432;SDS011;66752;48.576;8.876;2023-07-29T13:54:24;4.72;;;1.73;;
77432;SDS011;66752;48.576;8.876;2023-07-29T13:56:50;4.68;;;2.03;;
77432;SDS011;66752;48.576;8.876;2023-07-29T13:59:16;4.15;;;1.60;;
77432;SDS011;66752;48.576;8.876;2023-07-29T14:01:42;4.68;;;1.80;;
77432;SDS011;66752;48.576;8.876;2023-07-29T14:04:08;4.75;;;1.88;;
77432;SDS011;66752;48.576;8.876;2023-07-29T14:06:33;4.15;;;1.60;;
77432;SDS011;66752;48.576;8.876;2023-07-29T14:08:59;4.30;;;2.30;;
77432;SDS011;66752;48.576;8.876;2023-07-29T14:11:25;4.05;;;1.75;;
77432;SDS011;66752;48.576;8.876;2023-07-29T14:13:51;4.55;;;1.92;;
77432;SDS011;66752;48.576;8.876;2023-07-29T14:16:17;4.40;;;1.90;;
77432;SDS011;66752;48.576;8.876;2023-07-29T14:18:43;3.90;;;1.77;;
77432;SDS011;66752;48.576;8.876;2023-07-29T14:21:09;3.85;;;1.60;;
77432;SDS011;66752;48.576;8.876;2023-07-29T14:23:35;3.80;;;1.65;;
77432;SDS011;66752;48.576;8.876;2023-07-29T14:26:01;3.92;;;1.70;;
77432;SDS011;66752;48.576;8.876;2023-07-29T14:28:27;4.80;;;2.20;;
77432;SDS011;66752;48.576;8.876;2023-07-29T14:33:19;4.85;;;1.70;;
77432;SDS011;66752;48.576;8.876;2023-07-29T14:35:45;4.15;;;1.80;;
77432;SDS011;66752;48.576;8.876;2023-07-29T14:38:11;4.70;;;1.85;;
77432;SDS011;66752;48.576;8.876;2023-07-29T14:40:37;4.15;;;1.65;;
77432;SDS011;66752;48.576;8.876;2023-07-29T14:43:03;4.90;;;1.98;;
77432;SDS011;66752;48.576;8.876;2023-07-29T14:45:29;4.22;;;1.92;;
77432;SDS011;66752;48.576;8.876;2023-07-29T14:47:54;4.13;;;1.70;;
77432;SDS011;66752;48.576;8.876;2023-07-29T14:50:20;3.95;;;1.73;;
77432;SDS011;66752;48.576;8.876;2023-07-29T14:52:46;4.20;;;1.92;;
77432;SDS011;66752;48.576;8.876;2023-07-29T14:55:12;3.90;;;1.73;;
77432;SDS011;66752;48.576;8.876;2023-07-29T14:57:38;4.88;;;1.75;;
77432;SDS011;66752;48.576;8.876;2023-07-29T15:00:06;6.32;;;2.00;;
77432;SDS011;66752;48.576;8.876;2023-07-29T15:02:44;4.90;;;1.88;;
77432;SDS011;66752;48.576;8.876;2023-07-29T15:05:10;5.13;;;1.92;;
77432;SDS011;66752;48.576;8.876;2023-07-29T15:07:36;4.30;;;1.70;;
77432;SDS011;66752;48.576;8.876;2023-07-29T15:10:02;4.38;;;1.80;;
77432;SDS011;66752;48.576;8.876;2023-07-29T15:12:28;4.40;;;2.03;;
77432;SDS011;66752;48.576;8.876;2023-07-29T15:14:54;4.25;;;1.70;;
77432;SDS011;66752;48.576;8.876;2023-07-29T15:17:20;4.50;;;1.67;;
77432;SDS011;66752;48.576;8.876;2023-07-29T15:19:46;5.40;;;2.25;;
77432;SDS011;66752;48.576;8.876;2023-07-29T15:22:14;4.35;;;1.80;;
77432;SDS011;66752;48.576;8.876;2023-07-29T15:24:41;4.15;;;1.73;;
77432;SDS011;66752;48.576;8.876;2023-07-29T15:27:08;4.22;;;1.73;;
77432;SDS011;66752;48.576;8.876;2023-07-29T15:32:00;4.00;;;1.60;;
77432;SDS011;66752;48.576;8.876;2023-07-29T15:34:26;5.28;;;1.85;;
77432;SDS011;66752;48.576;8.876;2023-07-29T15:36:56;4.32;;;1.70;;
77432;SDS011;66752;48.576;8.876;2023-07-29T15:39:22;4.38;;;1.40;;
77432;SDS011;66752;48.576;8.876;2023-07-29T15:41:48;4.10;;;1.42;;
77432;SDS011;66752;48.576;8.876;2023-07-29T15:44:14;5.25;;;1.70;;
77432;SDS011;66752;48.576;8.876;2023-07-29T15:46:40;5.15;;;2.55;;